La Palma Islan, Spain
Current Conditions -  °F | °C
As of 9:00 PM on Monday 20 Oct 2014 (Local Time) from GCLA Reporting Station
Few Clouds Few Clouds  
Wind Chill: 73°   Ceiling: Unl
Heat Index: 73°   Visibility: 6mi
Dew Point: 54°   Wind: 10mph
Humidity: 50%   Direction: 230°SW
Pressure: 29.91"   Gusts: NA
Location:  28.62°N, 17.75°W
Report Text: GCLA 202000Z 23009KT 9999 FEW040 23/12 Q1013
Loading
Personal Weather Stations






























Interactive Weather Map
Tropical Storm Tracking
New forecast layout! Learn more

10-Day Weather Forecast

Advertisements
Track Severe Weather on mobile